Buhta Providenja, Russia
Current Conditions -  °F | °C
As of 11:30 AM on Tuesday 23 Dec 2014 (Local Time) from UHMA Reporting Station
Moderate Fog Moderate Fog  
Wind Chill: -44°   Ceiling: Unl
Heat Index: -24°   Visibility: 6mi
Dew Point: -26°   Wind: 9mph
Humidity: 91%   Direction: 20°NNE
Pressure: 30.09"   Gusts: NA
Location:  64.42°N, 173.23°E
Report Text: UHMA 222330Z 02004MPS 9999 VCFG SCT080 M31/M32 Q1019 NOSIG RMKQFE760/1014 880///60
Loading
Personal Weather Stations






























Interactive Weather Map New forecast layout! Learn more

10-Day Weather Forecast

Advertisements
Track Severe Weather on mobile